Time;durP1;ratioP1;P1;durP2;ratioP2;P2;SDS_P1;SDS_P2;PMS_P1;PMS_P2;Temp;Humidity;BMP_temperature;BMP_pressure;BME280_temperature;BME280_humidity;BME280_pressure;Samples;Min_cycle;Max_cycle;Signal;HPM_P1;HPM_P2
2021/05/23 00:01:25;;;;;;;4.85;0.65;;;;;;;12.25;72.64;100107.59;5034151;28;20051;-65
2021/05/23 00:04:08;;;;;;;4.00;0.80;;;;;;;12.25;73.04;100099.56;5034135;28;20130;-65
2021/05/23 00:06:52;;;;;;;4.38;0.73;;;;;;;12.26;72.97;100095.06;5033991;28;20057;-65
2021/05/23 00:09:37;;;;;;;1.67;0.75;;;;;;;12.29;72.66;100108.94;5034735;28;20099;-64
2021/05/23 00:12:22;;;;;;;0.98;0.73;;;;;;;12.34;72.64;100101.31;5020324;28;20052;-65
2021/05/23 00:15:07;;;;;;;1.63;0.85;;;;;;;12.30;73.23;100099.94;5033964;28;20056;-64
2021/05/23 00:17:51;;;;;;;0.63;0.55;;;;;;;12.32;73.25;100097.97;5033622;28;20076;-65
2021/05/23 00:20:36;;;;;;;2.45;0.90;;;;;;;12.32;72.79;100089.94;5034025;28;20052;-65
2021/05/23 00:23:21;;;;;;;1.45;0.80;;;;;;;12.31;73.14;100104.28;5019709;28;20410;-65
2021/05/23 00:26:06;;;;;;;1.25;0.70;;;;;;;12.29;73.07;100108.13;5033744;28;20052;-64
2021/05/23 00:28:52;;;;;;;3.40;0.80;;;;;;;12.29;73.14;100118.81;5019610;28;20508;-65
2021/05/23 00:31:36;;;;;;;1.38;0.63;;;;;;;12.26;73.23;100136.00;5033573;28;20130;-65
2021/05/23 00:34:20;;;;;;;;;;;;;;;12.29;73.24;100124.16;5034044;28;20049;-65
2021/05/23 00:37:04;;;;;;;1.83;0.60;;;;;;;12.23;73.33;100130.97;5032980;28;19970;-65
2021/05/23 00:39:48;;;;;;;3.58;0.70;;;;;;;12.21;73.46;100129.44;5033107;28;20049;-65
2021/05/23 00:42:32;;;;;;;2.72;0.98;;;;;;;12.19;72.71;100121.56;5033333;28;20418;-65
2021/05/23 00:45:17;;;;;;;;;;;;;;;12.18;72.61;100117.22;5033545;28;20574;-65
2021/05/23 00:48:01;;;;;;;0.55;0.50;;;;;;;12.22;72.79;100128.44;5019060;28;19920;-65
2021/05/23 00:50:45;;;;;;;4.43;1.10;;;;;;;12.23;72.70;100130.97;5034168;28;20103;-65
2021/05/23 00:53:29;;;;;;;3.42;0.88;;;;;;;12.25;72.53;100134.31;5033146;28;20051;-65
2021/05/23 00:56:17;;;;;;;2.40;0.80;;;;;;;12.21;72.93;100116.09;5033079;28;20040;-65
2021/05/23 00:59:01;;;;;;;2.65;1.05;;;;;;;12.24;72.72;100111.28;5033601;28;20052;-65
2021/05/23 01:01:44;;;;;;;2.47;0.70;;;;;;;12.21;73.13;100116.91;5033014;28;20052;-65
2021/05/23 01:04:29;;;;;;;1.35;0.88;;;;;;;12.24;72.09;100142.50;5033655;28;20414;-65
2021/05/23 01:07:13;;;;;;;1.08;0.77;;;;;;;12.31;71.75;100116.81;5033562;28;20064;-65
2021/05/23 01:10:04;;;;;;;2.78;0.80;;;;;;;12.33;71.19;100120.16;5033872;28;20110;-65
2021/05/23 01:12:54;;;;;;;0.88;0.60;;;;;;;12.30;71.51;100145.38;5032506;28;20056;-64
2021/05/23 01:15:40;;;;;;;0.47;0.47;;;;;;;12.28;71.97;100139.34;5033714;28;20486;-65
2021/05/23 01:18:31;;;;;;;1.10;0.82;;;;;;;12.27;71.90;100135.00;5032471;28;20410;-65
2021/05/23 01:21:18;;;;;;;1.83;0.80;;;;;;;12.24;72.35;100138.00;5032616;28;20110;-65
2021/05/23 01:24:14;;;;;;;5.38;0.93;;;;;;;12.19;72.29;100134.13;5032363;28;20056;-65
2021/05/23 01:26:59;;;;;;;1.20;0.75;;;;;;;12.21;72.61;100142.81;5033293;28;20040;-65
2021/05/23 01:29:43;;;;;;;5.50;0.93;;;;;;;12.19;72.68;100150.16;5032305;28;20521;-64
2021/05/23 01:32:27;;;;;;;2.05;0.82;;;;;;;12.14;72.46;100139.94;5033266;28;20056;-64
2021/05/23 01:35:17;;;;;;;1.85;1.05;;;;;;;12.14;72.73;100160.47;5032491;28;20048;-65
2021/05/23 01:38:02;;;;;;;1.83;0.70;;;;;;;12.09;73.13;100163.59;5033317;28;20070;-64
2021/05/23 01:40:49;;;;;;;1.60;0.80;;;;;;;12.11;73.29;100175.00;5032697;28;20410;-66
2021/05/23 01:43:33;;;;;;;2.45;0.80;;;;;;;12.05;73.42;100169.41;5018467;28;20053;-65
2021/05/23 01:46:18;;;;;;;1.77;0.80;;;;;;;12.01;73.81;100174.25;5033100;28;20048;-65
2021/05/23 01:49:02;;;;;;;0.60;0.60;;;;;;;12.02;73.51;100175.06;5038679;28;20072;-66
2021/05/23 01:51:46;;;;;;;2.20;0.90;;;;;;;11.99;73.80;100170.06;5025328;28;20570;-65
2021/05/23 01:54:30;;;;;;;2.10;0.98;;;;;;;11.97;73.91;100172.88;5038841;28;20055;-64
2021/05/23 01:57:14;;;;;;;3.50;0.80;;;;;;;11.98;74.20;100179.88;5038680;28;20533;-65
2021/05/23 01:59:58;;;;;;;2.17;0.85;;;;;;;11.97;74.81;100170.19;5039655;28;20071;-64
2021/05/23 02:02:42;;;;;;;3.28;0.70;;;;;;;11.93;74.62;100184.88;5039170;28;20095;-64
2021/05/23 02:05:27;;;;;;;1.67;0.80;;;;;;;11.90;74.91;100195.84;5024892;28;20473;-66
2021/05/23 02:08:12;;;;;;;0.90;0.60;;;;;;;11.87;75.02;100193.50;5038592;28;20146;-64
2021/05/23 02:11:07;;;;;;;1.67;0.93;;;;;;;11.83;75.13;100191.28;5024539;28;20126;-65
2021/05/23 02:13:51;;;;;;;;;;;;;;;11.81;74.98;100194.13;5025197;28;20088;-64
2021/05/23 02:16:35;;;;;;;4.10;1.08;;;;;;;11.78;75.13;100207.75;5039657;28;19939;-66
2021/05/23 02:19:19;;;;;;;0.95;0.60;;;;;;;11.74;75.15;100202.88;5038758;28;20099;-65
2021/05/23 02:22:03;;;;;;;2.40;0.95;;;;;;;11.73;75.30;100199.38;5038792;28;20143;-64
2021/05/23 02:24:47;;;;;;;1.90;1.00;;;;;;;11.68;75.82;100196.31;5038656;28;20048;-65
2021/05/23 02:27:40;;;;;;;0.70;0.70;;;;;;;11.66;75.85;100197.47;5038653;28;20179;-64
2021/05/23 02:30:27;;;;;;;2.30;0.70;;;;;;;11.64;75.93;100204.78;5024557;28;20052;-64
2021/05/23 02:33:13;;;;;;;4.35;0.98;;;;;;;11.57;75.97;100196.53;5039293;28;20143;-64
2021/05/23 02:35:58;;;;;;;1.52;0.60;;;;;;;11.60;76.55;100216.78;5039512;28;20052;-65
2021/05/23 02:38:42;;;;;;;1.63;0.88;;;;;;;11.55;76.37;100214.53;5038453;28;20095;-64
2021/05/23 02:41:26;;;;;;;2.42;0.70;;;;;;;11.50;77.07;100216.81;5039245;28;20111;-65
2021/05/23 02:44:10;;;;;;;5.50;1.10;;;;;;;11.50;77.13;100222.16;5024575;28;20446;-64
2021/05/23 02:46:53;;;;;;;1.42;0.80;;;;;;;11.50;77.25;100229.31;5039955;28;20099;-65
2021/05/23 02:49:42;;;;;;;0.40;0.40;;;;;;;11.45;77.65;100216.41;5038366;28;20106;-63
2021/05/23 02:52:26;;;;;;;1.30;0.80;;;;;;;11.47;77.97;100222.44;5039122;28;20537;-64
2021/05/23 02:55:11;;;;;;;2.63;0.55;;;;;;;11.47;77.44;100233.13;5038342;28;20060;-65
2021/05/23 02:57:55;;;;;;;1.95;0.93;;;;;;;11.43;78.08;100231.75;5009135;28;20107;-64
2021/05/23 03:00:39;;;;;;;1.70;0.90;;;;;;;11.43;78.23;100242.44;5036240;28;20053;-66
2021/05/23 03:03:23;;;;;;;1.08;0.85;;;;;;;11.42;78.29;100230.06;5035399;28;20132;-65
2021/05/23 03:06:07;;;;;;;1.42;0.70;;;;;;;11.42;78.64;100248.75;5034913;28;20044;-64
2021/05/23 03:08:52;;;;;;;1.65;1.08;;;;;;;11.41;78.38;100227.53;5035310;28;20095;-65
2021/05/23 03:11:36;;;;;;;1.50;0.90;;;;;;;11.41;78.79;100228.41;5034852;28;20084;-65
2021/05/23 03:14:20;;;;;;;1.73;0.90;;;;;;;11.36;79.24;100229.84;5035682;28;20052;-65
2021/05/23 03:17:07;;;;;;;2.10;0.98;;;;;;;11.32;79.53;100239.13;5034638;28;20072;-65
2021/05/23 03:19:51;;;;;;;2.58;0.70;;;;;;;11.30;79.65;100233.09;5035893;28;20143;-65
2021/05/23 03:22:36;;;;;;;1.05;0.60;;;;;;;11.25;80.20;100252.22;5034871;28;20052;-64
2021/05/23 03:25:21;;;;;;;2.17;0.73;;;;;;;11.22;80.56;100255.19;5034804;28;20099;-65
2021/05/23 03:28:06;;;;;;;2.60;0.65;;;;;;;11.17;80.33;100261.97;5020818;28;20464;-64
2021/05/23 03:30:50;;;;;;;2.38;0.70;;;;;;;11.15;80.97;100262.09;5020919;28;20179;-64
2021/05/23 03:33:34;;;;;;;2.25;1.20;;;;;;;11.07;81.12;100259.31;5034739;28;20533;-65
2021/05/23 03:36:18;;;;;;;0.40;0.40;;;;;;;11.07;81.18;100277.19;5034612;28;20052;-66
2021/05/23 03:39:02;;;;;;;2.00;0.80;;;;;;;11.05;80.52;100269.31;5034493;28;20454;-63
2021/05/23 03:41:46;;;;;;;4.70;1.00;;;;;;;11.00;80.85;100266.25;5035222;28;20521;-66
2021/05/23 03:44:30;;;;;;;3.50;1.08;;;;;;;11.01;81.43;100267.94;5020490;28;20048;-65
2021/05/23 03:47:14;;;;;;;2.67;0.80;;;;;;;11.00;81.74;100279.59;5035072;28;20048;-64
2021/05/23 03:49:58;;;;;;;2.70;1.02;;;;;;;10.98;81.54;100278.06;5035203;28;20064;-65
2021/05/23 03:52:42;;;;;;;1.05;0.70;;;;;;;10.96;82.40;100286.19;5035528;28;20072;-64
2021/05/23 03:55:28;;;;;;;3.90;0.90;;;;;;;10.97;81.94;100298.53;5020185;28;20099;-64
2021/05/23 03:58:12;;;;;;;1.13;0.85;;;;;;;10.91;82.41;100298.28;5033700;28;20126;-65
2021/05/23 04:00:56;;;;;;;3.25;0.80;;;;;;;10.93;82.03;100307.84;5034344;28;20056;-66
2021/05/23 04:03:40;;;;;;;0.90;0.70;;;;;;;10.93;81.70;100314.97;5034099;28;20090;-66
2021/05/23 04:06:24;;;;;;;1.50;0.60;;;;;;;10.97;81.72;100330.53;5020028;28;20114;-64
2021/05/23 04:09:08;;;;;;;3.00;0.90;;;;;;;10.94;81.59;100330.84;5034125;28;20071;-64
2021/05/23 04:11:52;;;;;;;2.53;0.93;;;;;;;11.02;81.11;100336.31;5034171;28;20079;-64
2021/05/23 04:14:36;;;;;;;1.35;0.90;;;;;;;11.05;80.94;100348.53;5034722;28;20132;-65
2021/05/23 04:17:20;;;;;;;2.35;1.02;;;;;;;11.13;79.64;100352.13;5033413;28;20128;-64
2021/05/23 04:20:06;;;;;;;3.88;0.95;;;;;;;11.16;79.70;100353.69;5033814;28;20052;-66
2021/05/23 04:22:51;;;;;;;0.47;0.47;;;;;;;11.19;79.10;100361.38;5034528;28;20171;-64
2021/05/23 04:25:35;;;;;;;3.15;0.80;;;;;;;11.22;78.88;100351.25;5033638;28;20044;-65
2021/05/23 04:28:19;;;;;;;0.60;0.60;;;;;;;11.19;78.89;100367.56;5034550;28;20052;-64
2021/05/23 04:31:02;;;;;;;2.83;0.85;;;;;;;11.24;79.10;100367.97;5034333;28;20124;-66
2021/05/23 04:33:46;;;;;;;3.00;0.77;;;;;;;11.27;78.89;100365.00;5033520;28;20063;-64
2021/05/23 04:36:30;;;;;;;0.75;0.70;;;;;;;11.30;78.23;100370.06;5033119;28;20053;-67
2021/05/23 04:39:14;;;;;;;4.00;0.90;;;;;;;11.36;78.07;100369.44;5019243;28;20078;-66
2021/05/23 04:41:58;;;;;;;3.35;1.00;;;;;;;11.42;78.10;100376.88;5034074;28;20102;-65
2021/05/23 04:44:42;;;;;;;2.78;0.80;;;;;;;11.43;78.29;100370.56;5033300;28;20067;-66
2021/05/23 04:47:27;;;;;;;2.72;0.70;;;;;;;11.41;77.89;100387.69;5034141;28;20056;-66
2021/05/23 04:50:12;;;;;;;1.15;0.68;;;;;;;11.43;77.81;100378.56;5033130;28;20080;-66
2021/05/23 04:52:55;;;;;;;0.95;0.80;;;;;;;11.42;77.49;100382.22;5033135;28;20414;-66
2021/05/23 04:55:39;;;;;;;2.97;0.70;;;;;;;11.49;78.41;100382.47;5034033;28;20099;-66
2021/05/23 04:58:23;;;;;;;2.88;1.13;;;;;;;11.55;77.74;100390.72;5032691;28;20068;-66
2021/05/23 05:01:07;;;;;;;2.25;0.85;;;;;;;11.65;77.36;100412.91;5032997;28;20052;-66
2021/05/23 05:03:51;;;;;;;1.17;0.60;;;;;;;11.67;77.28;100405.59;5033683;28;20052;-66
2021/05/23 05:06:35;;;;;;;1.23;0.85;;;;;;;11.73;75.81;100410.38;5033887;28;20045;-66
2021/05/23 05:09:18;;;;;;;1.77;1.00;;;;;;;11.66;76.45;100425.28;5033845;28;20071;-66
2021/05/23 05:12:03;;;;;;;1.23;0.63;;;;;;;11.71;76.40;100412.34;5034059;28;20103;-66
2021/05/23 05:14:47;;;;;;;;;;;;;;;11.68;76.44;100417.97;5033260;28;20048;-66
2021/05/23 05:17:31;;;;;;;2.97;0.70;;;;;;;11.67;76.73;100429.63;5033425;28;20456;-66
2021/05/23 05:20:15;;;;;;;3.97;0.80;;;;;;;11.77;77.15;100432.28;5033719;28;20107;-66
2021/05/23 05:22:59;;;;;;;1.65;0.82;;;;;;;11.83;76.72;100432.53;5032319;28;20064;-66
2021/05/23 05:25:42;;;;;;;2.17;0.70;;;;;;;11.89;75.92;100437.25;5033364;28;20060;-66
2021/05/23 05:28:27;;;;;;;2.83;0.90;;;;;;;11.89;75.81;100431.91;5032362;28;20072;-66
2021/05/23 05:31:12;;;;;;;3.40;0.80;;;;;;;12.00;75.38;100434.38;5033812;28;20501;-66
2021/05/23 05:33:56;;;;;;;4.80;0.90;;;;;;;12.09;74.89;100435.34;5033290;28;20418;-66
2021/05/23 05:36:39;;;;;;;3.78;0.98;;;;;;;12.24;74.89;100432.00;5033430;28;20402;-66
2021/05/23 05:39:23;;;;;;;2.50;0.85;;;;;;;12.31;73.82;100429.56;5018570;28;20056;-66
2021/05/23 05:42:07;;;;;;;1.70;0.63;;;;;;;12.27;73.82;100437.03;5033404;28;20311;-66
2021/05/23 05:44:51;;;;;;;1.08;0.63;;;;;;;12.13;74.40;100424.19;5018475;28;20129;-66
2021/05/23 05:47:35;;;;;;;2.83;1.08;;;;;;;11.99;74.89;100446.06;5032257;28;20103;-66
2021/05/23 05:50:19;;;;;;;1.30;0.80;;;;;;;11.98;75.40;100440.88;5032613;28;20492;-66
2021/05/23 05:53:03;;;;;;;2.05;0.88;;;;;;;12.00;75.78;100447.75;5032116;28;20136;-66
2021/05/23 05:55:47;;;;;;;2.45;0.93;;;;;;;11.96;75.63;100446.38;5032997;28;20179;-66
2021/05/23 05:58:31;;;;;;;1.05;0.68;;;;;;;11.90;75.59;100460.31;5032907;28;20048;-65
2021/05/23 06:01:15;;;;;;;3.53;0.90;;;;;;;11.87;75.74;100455.28;5032164;28;20129;-66
2021/05/23 06:03:58;;;;;;;4.57;0.85;;;;;;;11.86;76.48;100458.09;5032242;28;20084;-66
2021/05/23 06:06:42;;;;;;;0.60;0.60;;;;;;;11.88;76.12;100462.28;5031971;28;20079;-66
2021/05/23 06:09:26;;;;;;;2.00;0.80;;;;;;;12.02;75.78;100467.16;5032092;28;20059;-66
2021/05/23 06:12:10;;;;;;;2.45;0.75;;;;;;;12.15;75.33;100469.47;5031850;28;20056;-66
2021/05/23 06:14:55;;;;;;;3.63;1.00;;;;;;;12.32;74.02;100472.19;5017915;28;20514;-66
2021/05/23 06:17:40;;;;;;;1.83;1.00;;;;;;;12.44;74.02;100462.97;5032886;28;20049;-66
2021/05/23 06:20:24;;;;;;;1.67;0.80;;;;;;;12.63;73.87;100457.47;5032106;28;20080;-66
2021/05/23 06:23:08;;;;;;;2.58;0.82;;;;;;;12.65;71.66;100476.88;5033037;28;20132;-66
2021/05/23 06:25:53;;;;;;;1.50;0.85;;;;;;;12.79;71.27;100478.19;5032278;28;20505;-66
2021/05/23 06:28:38;;;;;;;2.05;1.08;;;;;;;12.91;70.41;100477.78;5031785;28;20143;-66
2021/05/23 06:31:22;;;;;;;4.55;0.90;;;;;;;12.85;69.75;100491.78;5018271;28;20056;-66
2021/05/23 06:34:06;;;;;;;2.45;0.98;;;;;;;12.86;69.94;100498.81;5033480;28;20569;-66
2021/05/23 06:36:50;;;;;;;2.25;1.02;;;;;;;12.87;69.44;100497.81;5035547;28;20052;-66
2021/05/23 06:39:34;;;;;;;2.90;0.80;;;;;;;12.98;68.92;100500.28;5021801;28;20621;-66
2021/05/23 06:42:18;;;;;;;1.75;1.15;;;;;;;13.09;69.18;100489.34;5035567;28;20057;-66
2021/05/23 06:45:03;;;;;;;2.72;0.90;;;;;;;13.18;67.71;100507.16;5036257;28;20052;-65
2021/05/23 06:47:47;;;;;;;0.77;0.70;;;;;;;13.10;66.98;100512.44;5035734;28;20136;-66
2021/05/23 06:50:31;;;;;;;6.38;0.80;;;;;;;12.86;68.23;100517.56;5035415;28;20087;-65
2021/05/23 06:53:14;;;;;;;2.58;1.00;;;;;;;12.82;69.08;100513.47;5021180;28;20418;-65
2021/05/23 06:55:58;;;;;;;5.63;0.90;;;;;;;12.95;68.13;100519.34;5035833;28;20135;-65
2021/05/23 06:58:42;;;;;;;3.95;1.30;;;;;;;12.99;68.27;100520.72;5035179;28;20078;-66
2021/05/23 07:01:26;;;;;;;3.25;1.13;;;;;;;13.06;67.10;100533.31;5034610;28;20203;-66
2021/05/23 07:04:10;;;;;;;2.33;0.90;;;;;;;13.10;66.95;100517.78;5034358;28;20080;-65
2021/05/23 07:06:54;;;;;;;2.72;0.90;;;;;;;13.26;67.81;100521.44;5020312;28;20071;-66
2021/05/23 07:09:39;;;;;;;2.55;1.02;;;;;;;13.60;66.67;100500.97;5035656;28;20107;-65
2021/05/23 07:12:23;;;;;;;1.42;0.80;;;;;;;13.51;66.37;100530.50;5034226;28;20056;-65
2021/05/23 07:15:08;;;;;;;4.78;1.48;;;;;;;13.75;65.38;100509.25;5020138;28;20159;-66
2021/05/23 07:17:53;;;;;;;1.08;0.70;;;;;;;13.61;65.91;100528.56;5035095;28;20060;-65
2021/05/23 07:20:37;;;;;;;1.13;0.80;;;;;;;13.69;66.37;100520.59;5034355;28;20100;-66
2021/05/23 07:23:21;;;;;;;1.45;0.80;;;;;;;13.30;66.80;100533.53;5034321;28;20091;-65
2021/05/23 07:26:05;;;;;;;3.05;0.88;;;;;;;13.39;67.55;100534.44;5034161;28;20080;-66
2021/05/23 07:28:49;;;;;;;2.38;0.85;;;;;;;13.41;66.78;100521.72;5033787;28;20095;-66
2021/05/23 07:31:33;;;;;;;3.20;0.88;;;;;;;13.58;66.68;100528.91;5035172;28;20052;-65
2021/05/23 07:34:17;;;;;;;1.55;0.82;;;;;;;13.78;65.12;100527.69;5034944;28;20475;-65
2021/05/23 07:37:01;;;;;;;2.53;1.00;;;;;;;13.90;64.82;100531.78;5033818;28;20406;-66
2021/05/23 07:39:45;;;;;;;2.65;0.82;;;;;;;14.04;62.79;100536.53;5034007;28;20051;-65
2021/05/23 07:42:29;;;;;;;1.80;0.70;;;;;;;14.12;62.58;100525.84;5033631;28;20052;-65
2021/05/23 07:45:13;;;;;;;2.33;0.73;;;;;;;14.06;62.47;100513.09;5033335;28;20103;-66
2021/05/23 07:47:58;;;;;;;1.15;0.73;;;;;;;14.30;62.30;100526.66;5033477;28;20118;-66
2021/05/23 07:50:42;;;;;;;1.17;0.82;;;;;;;14.44;60.48;100523.34;5034466;28;20418;-66
2021/05/23 07:53:26;;;;;;;1.30;0.75;;;;;;;14.74;59.44;100536.16;5034601;28;20103;-66
2021/05/23 07:56:11;;;;;;;1.08;0.70;;;;;;;14.58;60.36;100531.59;5033468;28;20052;-65
2021/05/23 07:58:55;;;;;;;3.60;0.82;;;;;;;14.70;59.78;100534.81;5033121;28;20052;-66
2021/05/23 08:01:39;;;;;;;2.78;0.90;;;;;;;14.60;59.72;100528.75;5033381;28;20053;-65
2021/05/23 08:04:23;;;;;;;3.60;0.88;;;;;;;14.48;60.32;100547.00;5033691;28;20048;-66
2021/05/23 08:07:07;;;;;;;1.52;0.82;;;;;;;14.71;60.17;100553.44;5033063;28;20056;-66
2021/05/23 08:09:51;;;;;;;2.35;0.57;;;;;;;14.75;59.31;100556.63;5033278;28;20111;-66
2021/05/23 08:12:35;;;;;;;1.10;0.80;;;;;;;14.94;59.09;100573.31;5033260;28;20517;-66
2021/05/23 08:15:20;;;;;;;2.17;0.75;;;;;;;15.16;58.12;100553.00;5034006;28;20145;-66
2021/05/23 08:18:04;;;;;;;1.35;0.75;;;;;;;15.57;59.15;100552.03;5032938;28;20052;-66
2021/05/23 08:20:50;;;;;;;2.13;0.85;;;;;;;15.97;57.34;100544.78;5033857;28;20080;-66
2021/05/23 08:23:36;;;;;;;2.60;0.77;;;;;;;16.19;56.13;100565.53;5034498;28;20068;-66
2021/05/23 08:26:20;;;;;;;2.58;0.70;;;;;;;15.38;57.14;100552.38;5032896;28;20151;-65
2021/05/23 08:29:04;;;;;;;1.08;0.75;;;;;;;15.52;57.36;100562.47;5032699;28;20132;-65
2021/05/23 08:31:48;;;;;;;2.20;0.82;;;;;;;15.36;57.97;100559.78;5018663;28;20126;-66
2021/05/23 08:34:32;;;;;;;4.47;0.80;;;;;;;15.16;58.30;100545.81;5033835;28;20072;-66
2021/05/23 08:37:17;;;;;;;2.33;0.88;;;;;;;15.31;58.33;100551.41;5032888;28;20040;-66
2021/05/23 08:40:05;;;;;;;1.67;0.80;;;;;;;15.30;56.93;100550.53;5032505;28;20075;-66
2021/05/23 08:42:49;;;;;;;5.53;0.85;;;;;;;15.49;56.78;100576.25;5033685;28;20465;-66
2021/05/23 08:45:33;;;;;;;0.50;0.50;;;;;;;15.21;57.09;100566.78;5033597;28;20111;-65
2021/05/23 08:48:18;;;;;;;1.75;0.82;;;;;;;15.37;56.88;100566.81;5032488;28;20102;-65
2021/05/23 08:51:02;;;;;;;1.83;0.57;;;;;;;15.18;57.13;100556.38;5032291;28;20057;-65
2021/05/23 08:53:46;;;;;;;3.67;0.80;;;;;;;15.17;56.26;100571.66;5032244;28;20509;-65
2021/05/23 08:56:30;;;;;;;0.77;0.63;;;;;;;15.46;55.47;100560.44;5032521;28;20049;-65
2021/05/23 08:59:13;;;;;;;3.05;0.88;;;;;;;15.63;54.52;100561.13;5033732;28;20107;-66
2021/05/23 09:02:05;;;;;;;1.42;0.60;;;;;;;15.88;54.68;100568.13;5033418;28;20106;-65
2021/05/23 09:04:51;;;;;;;2.05;0.90;;;;;;;15.96;54.38;100557.34;5032280;28;20524;-65
2021/05/23 09:07:45;;;;;;;1.55;0.55;;;;;;;16.20;54.61;100557.31;5032041;28;20171;-65
2021/05/23 09:10:32;;;;;;;1.48;0.85;;;;;;;16.46;53.54;100557.91;5018368;28;20141;-66
2021/05/23 09:13:49;;;;;;;2.55;0.98;;;;;;;16.75;51.75;100574.25;5033027;28;20132;-65
2021/05/23 09:16:39;;;;;;;3.65;0.82;;;;;;;16.78;50.28;100573.06;5032825;28;20044;-65
2021/05/23 09:19:25;;;;;;;2.17;0.90;;;;;;;16.46;51.49;100562.47;5031806;28;20556;-65
2021/05/23 09:22:11;;;;;;;1.65;0.63;;;;;;;16.33;52.07;100579.13;5033600;28;20044;-65
2021/05/23 09:24:58;;;;;;;2.67;0.80;;;;;;;16.29;52.43;100567.00;5032038;28;20104;-65
2021/05/23 09:27:44;;;;;;;3.00;0.70;;;;;;;16.87;52.29;100572.03;5031936;28;20072;-65
2021/05/23 09:30:31;;;;;;;1.17;0.70;;;;;;;16.57;51.34;100579.06;5017902;28;20052;-66
2021/05/23 09:33:19;;;;;;;3.53;0.88;;;;;;;16.67;51.25;100566.22;5031978;28;20044;-65
2021/05/23 09:36:03;;;;;;;1.30;0.70;;;;;;;15.88;51.06;100562.75;5031706;28;20068;-65
2021/05/23 09:39:00;;;;;;;6.80;0.98;;;;;;;16.09;51.53;100564.91;5032794;28;20064;-65
2021/05/23 09:41:46;;;;;;;3.03;1.15;;;;;;;16.59;49.44;100558.16;5032863;28;20048;-66
2021/05/23 09:44:29;;;;;;;2.97;1.00;;;;;;;16.48;49.85;100558.56;5032877;28;20087;-65
2021/05/23 09:47:14;;;;;;;2.70;1.05;;;;;;;16.50;49.61;100558.41;5031524;28;20064;-65
2021/05/23 09:49:58;;;;;;;3.38;0.90;;;;;;;16.18;49.11;100570.06;5017903;28;20068;-65
2021/05/23 09:52:42;;;;;;;1.85;0.95;;;;;;;16.05;49.51;100574.34;5017680;28;20473;-66
2021/05/23 09:55:26;;;;;;;5.38;1.20;;;;;;;15.95;48.92;100574.50;5031827;28;20044;-65
2021/05/23 09:58:19;;;;;;;4.20;0.90;;;;;;;16.10;49.65;100582.72;5031476;28;20553;-65
2021/05/23 10:01:04;;;;;;;4.80;1.08;;;;;;;16.36;49.81;100580.66;5031562;28;20055;-65
2021/05/23 10:03:48;;;;;;;2.75;0.70;;;;;;;17.13;48.57;100581.44;5031623;28;20099;-65
2021/05/23 10:06:37;;;;;;;5.93;0.93;;;;;;;17.65;46.37;100574.34;5017651;28;20049;-65
2021/05/23 10:09:21;;;;;;;2.05;0.80;;;;;;;17.88;46.85;100574.28;5035258;28;20176;-66
2021/05/23 10:12:08;;;;;;;1.77;0.95;;;;;;;17.86;46.88;100593.34;5036883;28;20053;-65
2021/05/23 10:14:52;;;;;;;3.92;0.90;;;;;;;17.12;47.83;100598.63;5035129;28;20048;-66
2021/05/23 10:17:40;;;;;;;5.38;1.30;;;;;;;16.45;49.24;100585.84;5035253;28;20407;-64
2021/05/23 10:20:28;;;;;;;2.40;0.88;;;;;;;16.30;49.91;100594.75;5036414;28;20545;-65
2021/05/23 10:23:27;;;;;;;4.45;0.90;;;;;;;15.90;50.68;100589.47;5035046;28;20048;-65
2021/05/23 10:26:12;;;;;;;1.92;0.88;;;;;;;16.33;51.41;100597.09;5021037;28;20067;-65
2021/05/23 10:28:58;;;;;;;1.30;0.80;;;;;;;16.65;50.14;100608.63;5035273;28;20048;-65
2021/05/23 10:31:43;;;;;;;3.03;0.82;;;;;;;16.79;50.13;100598.97;5035201;28;20057;-65
2021/05/23 10:34:42;;;;;;;2.63;0.85;;;;;;;16.66;49.21;100594.16;5035146;28;20115;-65
2021/05/23 10:37:28;;;;;;;3.90;0.90;;;;;;;16.49;48.79;100597.91;5036018;28;20084;-65
2021/05/23 10:40:27;;;;;;;3.15;1.15;;;;;;;16.70;48.30;100614.31;5036254;28;20179;-65
2021/05/23 10:43:20;;;;;;;2.50;0.80;;;;;;;16.78;49.93;100611.59;5021107;28;20114;-65
2021/05/23 10:46:07;;;;;;;3.10;0.85;;;;;;;17.28;46.49;100608.47;5034941;28;20403;-65
2021/05/23 10:48:53;;;;;;;4.18;0.93;;;;;;;18.09;45.90;100595.97;5034550;28;20056;-66
2021/05/23 10:51:37;;;;;;;3.55;0.90;;;;;;;17.69;44.51;100608.00;5036131;28;20127;-65
2021/05/23 10:54:22;;;;;;;1.20;0.68;;;;;;;17.57;46.08;100600.50;5035801;28;20056;-66
2021/05/23 10:57:06;;;;;;;2.85;0.98;;;;;;;17.32;48.41;100615.16;5034437;28;20083;-65
2021/05/23 11:00:04;;;;;;;3.15;1.02;;;;;;;16.89;47.84;100603.13;5035550;28;20079;-66
2021/05/23 11:02:51;;;;;;;3.90;1.23;;;;;;;17.14;48.43;100607.38;5034856;28;20175;-66
2021/05/23 11:05:36;;;;;;;3.58;1.23;;;;;;;17.65;47.48;100598.59;5035389;28;20060;-66
2021/05/23 11:08:28;;;;;;;4.40;1.30;;;;;;;17.90;45.60;100594.66;5020516;28;20052;-66
2021/05/23 11:11:19;;;;;;;6.35;0.70;;;;;;;19.21;42.16;100590.06;5034638;28;20048;-66
2021/05/23 11:14:16;;;;;;;2.10;0.93;;;;;;;19.37;41.35;100579.00;5035510;28;20045;-66
2021/05/23 11:17:00;;;;;;;2.05;1.00;;;;;;;19.76;41.48;100579.34;5035102;28;20068;-67
2021/05/23 11:19:45;;;;;;;3.78;1.13;;;;;;;21.69;38.31;100575.94;5019527;28;20051;-66
2021/05/23 11:22:29;;;;;;;2.33;1.00;;;;;;;20.88;37.98;100566.34;5034306;28;20514;-66
2021/05/23 11:25:14;;;;;;;2.35;0.80;;;;;;;18.74;42.07;100573.47;5020334;28;20068;-66
2021/05/23 11:28:06;;;;;;;5.55;1.15;;;;;;;17.92;43.05;100584.50;5034077;28;20524;-66
2021/05/23 11:30:50;;;;;;;1.30;0.70;;;;;;;17.08;45.50;100575.75;5034138;28;20148;-66
2021/05/23 11:33:34;;;;;;;3.70;0.80;;;;;;;16.86;44.98;100616.94;5034976;28;20426;-65
2021/05/23 11:36:26;;;;;;;3.42;0.90;;;;;;;16.84;45.94;100575.91;5034970;28;20060;-66
2021/05/23 11:39:15;;;;;;;3.85;1.10;;;;;;;16.86;46.63;100581.94;5034650;28;20056;-66
2021/05/23 11:42:02;;;;;;;2.40;0.90;;;;;;;16.69;47.21;100584.91;5033584;28;20052;-66
2021/05/23 11:44:47;;;;;;;6.50;1.80;;;;;;;16.61;47.68;100604.63;5033589;28;20051;-66
2021/05/23 11:47:43;;;;;;;1.80;0.85;;;;;;;16.34;50.71;100617.59;5033963;28;20540;-67
2021/05/23 11:50:28;;;;;;;3.25;0.93;;;;;;;15.75;53.45;100642.25;5034567;28;20060;-67
2021/05/23 11:53:12;;;;;;;4.97;0.90;;;;;;;15.31;57.79;100638.16;5033647;28;20091;-67
2021/05/23 11:55:56;;;;;;;3.53;0.90;;;;;;;14.96;61.32;100626.81;5034491;28;20129;-67
2021/05/23 11:58:47;;;;;;;4.38;0.73;;;;;;;14.89;64.13;100625.81;5034467;28;20052;-67
2021/05/23 12:01:35;;;;;;;3.95;0.77;;;;;;;14.99;60.36;100627.34;5034563;28;20060;-67
2021/05/23 12:04:19;;;;;;;1.33;0.60;;;;;;;15.19;58.30;100619.84;5033472;28;20560;-67
2021/05/23 12:07:05;;;;;;;3.35;1.13;;;;;;;15.70;58.31;100621.25;5019393;28;20045;-67
2021/05/23 12:09:50;;;;;;;0.57;0.57;;;;;;;16.18;57.07;100623.03;5033352;28;20052;-67
2021/05/23 12:12:34;;;;;;;3.30;0.98;;;;;;;17.02;53.21;100603.41;5033285;28;20053;-67
2021/05/23 12:15:19;;;;;;;1.05;0.60;;;;;;;18.82;46.72;100597.66;5032967;28;20391;-67
2021/05/23 12:18:03;;;;;;;3.25;0.75;;;;;;;20.78;40.80;100582.97;5033004;28;20084;-67
2021/05/23 12:20:48;;;;;;;3.42;0.73;;;;;;;22.25;37.45;100596.16;5019214;28;20418;-67
2021/05/23 12:23:33;;;;;;;1.33;0.88;;;;;;;22.25;37.45;100596.16;5033132;28;20051;-65
2021/05/23 12:26:18;;;;;;;1.13;0.68;;;;;;;21.47;36.27;100603.44;5034068;28;20091;-67
2021/05/23 12:29:02;;;;;;;2.55;0.77;;;;;;;22.24;35.83;100594.50;5032704;28;20382;-67
2021/05/23 12:31:47;;;;;;;2.38;0.85;;;;;;;22.29;33.40;100591.16;5031948;28;20040;-66
2021/05/23 12:34:32;;;;;;;1.77;0.70;;;;;;;22.41;32.76;100586.75;5032628;28;20128;-66
2021/05/23 12:37:21;;;;;;;3.25;1.05;;;;;;;24.22;32.93;100568.53;5032661;28;20072;-65
2021/05/23 12:40:14;;;;;;;1.13;0.70;;;;;;;23.82;32.16;100556.28;5032785;28;20520;-66
2021/05/23 12:43:32;;;;;;;1.33;0.70;;;;;;;21.33;34.10;100583.59;5032724;28;20083;-67
2021/05/23 12:46:21;;;;;;;0.73;0.68;;;;;;;21.44;32.42;100577.56;5032426;28;20122;-66
2021/05/23 12:49:14;;;;;;;1.20;0.73;;;;;;;22.21;32.40;100573.16;5032574;28;20135;-66
2021/05/23 12:51:58;;;;;;;1.73;0.77;;;;;;;20.91;33.36;100577.63;5033417;28;20052;-66